Elko, South Carolina
Current Conditions -  °F | °C
As of 8:55 AM on Sunday 23 Nov 2014 (Local Time) from KBNL Reporting Station
Moderate Rain Moderate Rain  
Wind Chill: 55°   Ceiling: NA
Heat Index: 55°   Visibility: NA
Dew Point: 55°   Wind: 10mph
Humidity: 100%   Direction: 80°E
Pressure: 30.09"   Gusts: 18mph
Location:  33.38°N, 81.38°W
Report Text: KBNL 231355Z AUTO 08009G16KT RA 13/13 A3009 RMK AO2 P0008
Loading
Personal Weather Stations






























Interactive Weather Map New forecast layout! Learn more

10-Day Weather Forecast

Advertisements
Track Severe Weather on mobile